sensor_id;sensor_type;location;lat;lon;timestamp;P1;durP1;ratioP1;P2;durP2;ratioP2
18322;SDS011;9287;49.456;11.064;2022-07-23T00:01:15;8.90;;;7.15;;
18322;SDS011;9287;49.456;11.064;2022-07-23T00:03:53;7.70;;;7.00;;
18322;SDS011;9287;49.456;11.064;2022-07-23T00:06:21;9.32;;;7.97;;
18322;SDS011;9287;49.456;11.064;2022-07-23T00:08:49;8.38;;;7.65;;
18322;SDS011;9287;49.456;11.064;2022-07-23T00:11:17;9.20;;;8.40;;
18322;SDS011;9287;49.456;11.064;2022-07-23T00:13:45;8.55;;;7.65;;
18322;SDS011;9287;49.456;11.064;2022-07-23T00:16:13;10.15;;;9.10;;
18322;SDS011;9287;49.456;11.064;2022-07-23T00:18:42;9.55;;;8.65;;
18322;SDS011;9287;49.456;11.064;2022-07-23T00:21:10;12.27;;;8.95;;
18322;SDS011;9287;49.456;11.064;2022-07-23T00:23:38;9.13;;;8.32;;
18322;SDS011;9287;49.456;11.064;2022-07-23T00:26:05;9.27;;;8.48;;
18322;SDS011;9287;49.456;11.064;2022-07-23T00:28:34;10.13;;;9.13;;
18322;SDS011;9287;49.456;11.064;2022-07-23T00:31:01;11.55;;;9.40;;
18322;SDS011;9287;49.456;11.064;2022-07-23T00:33:30;10.23;;;9.23;;
18322;SDS011;9287;49.456;11.064;2022-07-23T00:35:59;9.55;;;8.73;;
18322;SDS011;9287;49.456;11.064;2022-07-23T00:38:27;9.73;;;8.75;;
18322;SDS011;9287;49.456;11.064;2022-07-23T00:40:55;9.60;;;8.77;;
18322;SDS011;9287;49.456;11.064;2022-07-23T00:43:22;9.82;;;8.98;;
18322;SDS011;9287;49.456;11.064;2022-07-23T00:45:51;9.23;;;8.40;;
18322;SDS011;9287;49.456;11.064;2022-07-23T00:48:19;10.35;;;9.35;;
18322;SDS011;9287;49.456;11.064;2022-07-23T00:50:47;9.55;;;8.75;;
18322;SDS011;9287;49.456;11.064;2022-07-23T00:53:17;10.32;;;9.35;;
18322;SDS011;9287;49.456;11.064;2022-07-23T00:55:44;9.75;;;8.80;;
18322;SDS011;9287;49.456;11.064;2022-07-23T00:58:12;10.80;;;9.52;;
18322;SDS011;9287;49.456;11.064;2022-07-23T01:00:41;9.77;;;8.77;;
18322;SDS011;9287;49.456;11.064;2022-07-23T01:03:09;11.38;;;8.27;;
18322;SDS011;9287;49.456;11.064;2022-07-23T01:05:37;10.65;;;9.00;;
18322;SDS011;9287;49.456;11.064;2022-07-23T01:08:05;10.10;;;9.10;;
18322;SDS011;9287;49.456;11.064;2022-07-23T01:10:34;10.50;;;9.25;;
18322;SDS011;9287;49.456;11.064;2022-07-23T01:13:03;10.15;;;8.90;;
18322;SDS011;9287;49.456;11.064;2022-07-23T01:15:32;8.73;;;7.80;;
18322;SDS011;9287;49.456;11.064;2022-07-23T01:18:00;10.15;;;9.15;;
18322;SDS011;9287;49.456;11.064;2022-07-23T01:20:29;9.65;;;8.57;;
18322;SDS011;9287;49.456;11.064;2022-07-23T01:22:59;9.57;;;8.60;;
18322;SDS011;9287;49.456;11.064;2022-07-23T01:25:27;9.13;;;8.23;;
18322;SDS011;9287;49.456;11.064;2022-07-23T01:27:54;11.02;;;9.93;;
18322;SDS011;9287;49.456;11.064;2022-07-23T01:30:22;11.43;;;9.40;;
18322;SDS011;9287;49.456;11.064;2022-07-23T01:32:50;12.05;;;10.45;;
18322;SDS011;9287;49.456;11.064;2022-07-23T01:35:18;14.95;;;12.05;;
18322;SDS011;9287;49.456;11.064;2022-07-23T01:37:46;13.93;;;11.40;;
18322;SDS011;9287;49.456;11.064;2022-07-23T01:40:15;11.80;;;10.55;;
18322;SDS011;9287;49.456;11.064;2022-07-23T01:42:44;11.98;;;10.88;;
18322;SDS011;9287;49.456;11.064;2022-07-23T01:45:12;12.60;;;11.40;;
18322;SDS011;9287;49.456;11.064;2022-07-23T01:47:40;12.02;;;10.23;;
18322;SDS011;9287;49.456;11.064;2022-07-23T01:50:08;10.77;;;9.77;;
18322;SDS011;9287;49.456;11.064;2022-07-23T01:52:36;11.85;;;10.45;;
18322;SDS011;9287;49.456;11.064;2022-07-23T01:55:04;11.07;;;10.05;;
18322;SDS011;9287;49.456;11.064;2022-07-23T01:57:35;11.70;;;10.60;;
18322;SDS011;9287;49.456;11.064;2022-07-23T02:00:03;10.25;;;9.25;;
18322;SDS011;9287;49.456;11.064;2022-07-23T02:02:31;11.68;;;10.45;;
18322;SDS011;9287;49.456;11.064;2022-07-23T02:04:59;11.90;;;10.63;;
18322;SDS011;9287;49.456;11.064;2022-07-23T02:07:27;11.20;;;9.75;;
18322;SDS011;9287;49.456;11.064;2022-07-23T02:09:58;11.38;;;10.15;;
18322;SDS011;9287;49.456;11.064;2022-07-23T02:12:26;9.90;;;8.95;;
18322;SDS011;9287;49.456;11.064;2022-07-23T02:14:55;9.77;;;8.88;;
18322;SDS011;9287;49.456;11.064;2022-07-23T02:17:24;10.10;;;9.20;;
18322;SDS011;9287;49.456;11.064;2022-07-23T02:19:52;10.00;;;8.80;;
18322;SDS011;9287;49.456;11.064;2022-07-23T02:22:19;9.77;;;8.65;;
18322;SDS011;9287;49.456;11.064;2022-07-23T02:24:47;9.60;;;8.77;;
18322;SDS011;9287;49.456;11.064;2022-07-23T02:27:15;10.38;;;9.38;;
18322;SDS011;9287;49.456;11.064;2022-07-23T02:29:43;10.50;;;9.50;;
18322;SDS011;9287;49.456;11.064;2022-07-23T02:32:12;12.13;;;10.30;;
18322;SDS011;9287;49.456;11.064;2022-07-23T02:34:39;10.30;;;9.38;;
18322;SDS011;9287;49.456;11.064;2022-07-23T02:37:07;10.07;;;9.18;;
18322;SDS011;9287;49.456;11.064;2022-07-23T02:39:35;10.13;;;9.13;;
18322;SDS011;9287;49.456;11.064;2022-07-23T02:42:03;10.27;;;9.27;;
18322;SDS011;9287;49.456;11.064;2022-07-23T02:44:31;10.90;;;9.50;;
18322;SDS011;9287;49.456;11.064;2022-07-23T02:46:59;10.32;;;9.43;;
18322;SDS011;9287;49.456;11.064;2022-07-23T02:49:28;9.88;;;8.85;;
18322;SDS011;9287;49.456;11.064;2022-07-23T02:51:56;12.93;;;10.55;;
18322;SDS011;9287;49.456;11.064;2022-07-23T02:54:24;11.95;;;9.52;;
18322;SDS011;9287;49.456;11.064;2022-07-23T02:56:52;11.27;;;10.30;;
18322;SDS011;9287;49.456;11.064;2022-07-23T02:59:20;11.50;;;10.40;;
18322;SDS011;9287;49.456;11.064;2022-07-23T03:01:48;10.32;;;9.48;;
18322;SDS011;9287;49.456;11.064;2022-07-23T03:04:15;9.63;;;8.32;;
18322;SDS011;9287;49.456;11.064;2022-07-23T03:06:45;10.43;;;9.27;;
18322;SDS011;9287;49.456;11.064;2022-07-23T03:09:12;12.35;;;8.90;;
18322;SDS011;9287;49.456;11.064;2022-07-23T03:11:40;10.45;;;9.57;;
18322;SDS011;9287;49.456;11.064;2022-07-23T03:14:08;10.95;;;9.90;;
18322;SDS011;9287;49.456;11.064;2022-07-23T03:16:39;10.43;;;9.32;;
18322;SDS011;9287;49.456;11.064;2022-07-23T03:19:07;10.77;;;9.88;;
18322;SDS011;9287;49.456;11.064;2022-07-23T03:21:35;10.40;;;9.50;;
18322;SDS011;9287;49.456;11.064;2022-07-23T03:24:09;11.65;;;10.40;;
18322;SDS011;9287;49.456;11.064;2022-07-23T03:26:37;11.50;;;10.40;;
18322;SDS011;9287;49.456;11.064;2022-07-23T03:29:06;10.45;;;9.55;;
18322;SDS011;9287;49.456;11.064;2022-07-23T03:31:33;11.00;;;9.98;;
18322;SDS011;9287;49.456;11.064;2022-07-23T03:34:02;11.23;;;10.23;;
18322;SDS011;9287;49.456;11.064;2022-07-23T03:36:29;11.52;;;10.48;;
18322;SDS011;9287;49.456;11.064;2022-07-23T03:38:58;11.38;;;10.27;;
18322;SDS011;9287;49.456;11.064;2022-07-23T03:41:28;10.60;;;9.73;;
18322;SDS011;9287;49.456;11.064;2022-07-23T03:43:56;11.50;;;10.35;;
18322;SDS011;9287;49.456;11.064;2022-07-23T03:46:24;10.70;;;9.77;;
18322;SDS011;9287;49.456;11.064;2022-07-23T03:48:52;10.48;;;9.57;;
18322;SDS011;9287;49.456;11.064;2022-07-23T03:51:24;11.73;;;10.27;;
18322;SDS011;9287;49.456;11.064;2022-07-23T03:53:52;12.15;;;11.13;;
18322;SDS011;9287;49.456;11.064;2022-07-23T03:56:20;11.13;;;10.02;;
18322;SDS011;9287;49.456;11.064;2022-07-23T03:58:50;11.40;;;10.48;;
18322;SDS011;9287;49.456;11.064;2022-07-23T04:01:18;12.18;;;11.02;;
18322;SDS011;9287;49.456;11.064;2022-07-23T04:03:46;11.50;;;10.40;;
18322;SDS011;9287;49.456;11.064;2022-07-23T04:06:13;13.73;;;11.15;;
18322;SDS011;9287;49.456;11.064;2022-07-23T04:08:41;11.63;;;10.65;;
18322;SDS011;9287;49.456;11.064;2022-07-23T04:11:09;11.90;;;10.90;;
18322;SDS011;9287;49.456;11.064;2022-07-23T04:13:37;12.18;;;11.07;;
18322;SDS011;9287;49.456;11.064;2022-07-23T04:16:06;11.73;;;10.63;;
18322;SDS011;9287;49.456;11.064;2022-07-23T04:18:34;12.27;;;11.07;;
18322;SDS011;9287;49.456;11.064;2022-07-23T04:21:02;12.45;;;11.30;;
18322;SDS011;9287;49.456;11.064;2022-07-23T04:23:30;11.50;;;10.30;;
18322;SDS011;9287;49.456;11.064;2022-07-23T04:25:58;14.95;;;11.15;;
18322;SDS011;9287;49.456;11.064;2022-07-23T04:28:25;12.82;;;10.52;;
18322;SDS011;9287;49.456;11.064;2022-07-23T04:30:55;11.13;;;10.13;;
18322;SDS011;9287;49.456;11.064;2022-07-23T04:33:25;12.43;;;9.95;;
18322;SDS011;9287;49.456;11.064;2022-07-23T04:35:52;10.70;;;9.90;;
18322;SDS011;9287;49.456;11.064;2022-07-23T04:38:20;9.60;;;8.80;;
18322;SDS011;9287;49.456;11.064;2022-07-23T04:40:48;10.55;;;9.63;;
18322;SDS011;9287;49.456;11.064;2022-07-23T04:43:16;9.88;;;8.98;;
18322;SDS011;9287;49.456;11.064;2022-07-23T04:45:43;8.90;;;8.20;;
18322;SDS011;9287;49.456;11.064;2022-07-23T04:48:11;9.57;;;8.65;;
18322;SDS011;9287;49.456;11.064;2022-07-23T04:50:40;8.27;;;7.57;;
18322;SDS011;9287;49.456;11.064;2022-07-23T04:53:09;8.02;;;7.32;;
18322;SDS011;9287;49.456;11.064;2022-07-23T04:55:36;7.70;;;7.10;;
18322;SDS011;9287;49.456;11.064;2022-07-23T04:58:04;8.13;;;7.43;;
18322;SDS011;9287;49.456;11.064;2022-07-23T05:00:32;8.25;;;7.55;;
18322;SDS011;9287;49.456;11.064;2022-07-23T05:03:00;7.88;;;7.15;;
18322;SDS011;9287;49.456;11.064;2022-07-23T05:05:28;6.40;;;5.90;;
18322;SDS011;9287;49.456;11.064;2022-07-23T05:07:57;5.90;;;5.45;;
18322;SDS011;9287;49.456;11.064;2022-07-23T05:10:25;6.10;;;5.60;;
18322;SDS011;9287;49.456;11.064;2022-07-23T05:12:52;6.75;;;6.15;;
18322;SDS011;9287;49.456;11.064;2022-07-23T05:15:20;6.75;;;5.82;;
18322;SDS011;9287;49.456;11.064;2022-07-23T05:17:48;6.30;;;5.65;;
18322;SDS011;9287;49.456;11.064;2022-07-23T05:20:16;6.22;;;5.65;;
18322;SDS011;9287;49.456;11.064;2022-07-23T05:22:44;5.15;;;4.78;;
18322;SDS011;9287;49.456;11.064;2022-07-23T05:25:13;5.93;;;5.43;;
18322;SDS011;9287;49.456;11.064;2022-07-23T05:27:41;4.93;;;4.63;;
18322;SDS011;9287;49.456;11.064;2022-07-23T05:30:09;5.60;;;5.10;;
18322;SDS011;9287;49.456;11.064;2022-07-23T05:32:37;5.63;;;5.22;;
18322;SDS011;9287;49.456;11.064;2022-07-23T05:35:06;5.43;;;5.00;;
18322;SDS011;9287;49.456;11.064;2022-07-23T05:37:34;4.72;;;4.32;;
18322;SDS011;9287;49.456;11.064;2022-07-23T05:40:02;5.97;;;4.47;;
18322;SDS011;9287;49.456;11.064;2022-07-23T05:42:33;5.63;;;5.05;;
18322;SDS011;9287;49.456;11.064;2022-07-23T05:45:01;5.05;;;4.43;;
18322;SDS011;9287;49.456;11.064;2022-07-23T05:47:38;4.68;;;4.38;;
18322;SDS011;9287;49.456;11.064;2022-07-23T05:50:07;6.07;;;4.32;;
18322;SDS011;9287;49.456;11.064;2022-07-23T05:52:35;5.10;;;4.60;;
18322;SDS011;9287;49.456;11.064;2022-07-23T05:55:02;4.28;;;3.88;;
18322;SDS011;9287;49.456;11.064;2022-07-23T05:57:31;4.65;;;3.70;;
18322;SDS011;9287;49.456;11.064;2022-07-23T06:00:00;4.53;;;3.90;;
18322;SDS011;9287;49.456;11.064;2022-07-23T06:02:27;3.88;;;3.65;;
18322;SDS011;9287;49.456;11.064;2022-07-23T06:04:55;3.97;;;3.67;;
18322;SDS011;9287;49.456;11.064;2022-07-23T06:07:23;5.82;;;3.25;;
18322;SDS011;9287;49.456;11.064;2022-07-23T06:09:51;5.55;;;3.53;;
18322;SDS011;9287;49.456;11.064;2022-07-23T06:12:18;3.40;;;3.20;;
18322;SDS011;9287;49.456;11.064;2022-07-23T06:14:46;3.83;;;3.50;;
18322;SDS011;9287;49.456;11.064;2022-07-23T06:17:17;3.42;;;3.22;;
18322;SDS011;9287;49.456;11.064;2022-07-23T06:19:45;5.35;;;4.90;;
18322;SDS011;9287;49.456;11.064;2022-07-23T06:22:12;4.25;;;3.97;;
18322;SDS011;9287;49.456;11.064;2022-07-23T06:24:40;4.22;;;3.92;;
18322;SDS011;9287;49.456;11.064;2022-07-23T06:27:08;4.13;;;3.72;;
18322;SDS011;9287;49.456;11.064;2022-07-23T06:29:35;4.22;;;3.92;;
18322;SDS011;9287;49.456;11.064;2022-07-23T06:32:03;3.97;;;3.67;;
18322;SDS011;9287;49.456;11.064;2022-07-23T06:34:33;4.05;;;3.72;;
18322;SDS011;9287;49.456;11.064;2022-07-23T06:37:01;3.88;;;3.65;;
18322;SDS011;9287;49.456;11.064;2022-07-23T06:39:29;3.42;;;3.13;;
18322;SDS011;9287;49.456;11.064;2022-07-23T06:41:56;4.82;;;3.30;;
18322;SDS011;9287;49.456;11.064;2022-07-23T06:44:26;3.45;;;3.25;;
18322;SDS011;9287;49.456;11.064;2022-07-23T06:46:54;4.50;;;3.92;;
18322;SDS011;9287;49.456;11.064;2022-07-23T06:49:22;4.18;;;3.38;;
18322;SDS011;9287;49.456;11.064;2022-07-23T06:51:51;3.67;;;3.38;;
18322;SDS011;9287;49.456;11.064;2022-07-23T06:54:19;4.05;;;3.75;;
18322;SDS011;9287;49.456;11.064;2022-07-23T06:56:46;4.00;;;3.70;;
18322;SDS011;9287;49.456;11.064;2022-07-23T06:59:15;5.05;;;4.70;;
18322;SDS011;9287;49.456;11.064;2022-07-23T07:01:43;4.70;;;4.40;;
18322;SDS011;9287;49.456;11.064;2022-07-23T07:04:11;4.85;;;4.10;;
18322;SDS011;9287;49.456;11.064;2022-07-23T07:06:39;4.22;;;3.92;;
18322;SDS011;9287;49.456;11.064;2022-07-23T07:09:08;4.35;;;4.05;;
18322;SDS011;9287;49.456;11.064;2022-07-23T07:11:36;4.57;;;4.28;;
18322;SDS011;9287;49.456;11.064;2022-07-23T07:14:03;4.13;;;3.83;;
18322;SDS011;9287;49.456;11.064;2022-07-23T07:16:32;4.28;;;3.97;;
18322;SDS011;9287;49.456;11.064;2022-07-23T07:19:00;4.72;;;4.10;;
18322;SDS011;9287;49.456;11.064;2022-07-23T07:21:28;5.65;;;4.15;;
18322;SDS011;9287;49.456;11.064;2022-07-23T07:23:56;5.55;;;5.13;;
18322;SDS011;9287;49.456;11.064;2022-07-23T07:26:25;6.22;;;5.65;;
18322;SDS011;9287;49.456;11.064;2022-07-23T07:28:53;7.40;;;5.72;;
18322;SDS011;9287;49.456;11.064;2022-07-23T07:31:21;5.57;;;5.18;;
18322;SDS011;9287;49.456;11.064;2022-07-23T07:33:49;6.38;;;5.97;;
18322;SDS011;9287;49.456;11.064;2022-07-23T07:36:16;7.40;;;5.68;;
18322;SDS011;9287;49.456;11.064;2022-07-23T07:38:44;6.82;;;5.50;;
18322;SDS011;9287;49.456;11.064;2022-07-23T07:41:12;6.40;;;4.85;;
18322;SDS011;9287;49.456;11.064;2022-07-23T07:43:41;5.10;;;4.60;;
18322;SDS011;9287;49.456;11.064;2022-07-23T07:46:09;5.35;;;4.95;;
18322;SDS011;9287;49.456;11.064;2022-07-23T07:48:37;8.13;;;5.15;;
18322;SDS011;9287;49.456;11.064;2022-07-23T07:51:05;8.27;;;5.38;;
18322;SDS011;9287;49.456;11.064;2022-07-23T07:53:34;10.43;;;5.72;;
18322;SDS011;9287;49.456;11.064;2022-07-23T07:56:02;5.78;;;5.38;;
18322;SDS011;9287;49.456;11.064;2022-07-23T07:58:30;5.90;;;5.30;;
18322;SDS011;9287;49.456;11.064;2022-07-23T08:00:59;5.68;;;5.28;;
18322;SDS011;9287;49.456;11.064;2022-07-23T08:03:28;5.97;;;5.40;;
18322;SDS011;9287;49.456;11.064;2022-07-23T08:05:56;6.82;;;5.30;;
18322;SDS011;9287;49.456;11.064;2022-07-23T08:08:24;6.53;;;5.82;;
18322;SDS011;9287;49.456;11.064;2022-07-23T08:10:52;6.03;;;5.53;;
18322;SDS011;9287;49.456;11.064;2022-07-23T08:13:20;6.40;;;5.80;;
18322;SDS011;9287;49.456;11.064;2022-07-23T08:15:48;6.50;;;5.85;;
18322;SDS011;9287;49.456;11.064;2022-07-23T08:18:19;6.82;;;6.13;;
18322;SDS011;9287;49.456;11.064;2022-07-23T08:20:49;5.75;;;5.32;;
18322;SDS011;9287;49.456;11.064;2022-07-23T08:23:17;6.15;;;5.55;;
18322;SDS011;9287;49.456;11.064;2022-07-23T08:25:46;5.68;;;5.28;;
18322;SDS011;9287;49.456;11.064;2022-07-23T08:28:14;5.78;;;5.28;;
18322;SDS011;9287;49.456;11.064;2022-07-23T08:30:43;5.70;;;5.20;;
18322;SDS011;9287;49.456;11.064;2022-07-23T08:33:12;5.88;;;5.38;;
18322;SDS011;9287;49.456;11.064;2022-07-23T08:36:01;5.28;;;4.93;;
18322;SDS011;9287;49.456;11.064;2022-07-23T08:38:31;5.80;;;5.22;;
18322;SDS011;9287;49.456;11.064;2022-07-23T08:40:59;4.88;;;4.57;;
18322;SDS011;9287;49.456;11.064;2022-07-23T08:43:28;5.45;;;5.07;;
18322;SDS011;9287;49.456;11.064;2022-07-23T08:45:58;5.18;;;4.80;;
18322;SDS011;9287;49.456;11.064;2022-07-23T08:48:28;7.90;;;5.28;;
18322;SDS011;9287;49.456;11.064;2022-07-23T08:50:58;5.78;;;5.32;;
18322;SDS011;9287;49.456;11.064;2022-07-23T08:53:31;5.82;;;5.40;;
18322;SDS011;9287;49.456;11.064;2022-07-23T08:56:00;5.28;;;4.85;;
18322;SDS011;9287;49.456;11.064;2022-07-23T08:58:30;8.90;;;5.05;;
18322;SDS011;9287;49.456;11.064;2022-07-23T09:00:59;5.75;;;5.25;;
18322;SDS011;9287;49.456;11.064;2022-07-23T09:03:28;6.50;;;5.18;;
18322;SDS011;9287;49.456;11.064;2022-07-23T09:05:57;4.40;;;4.10;;
18322;SDS011;9287;49.456;11.064;2022-07-23T09:08:35;4.85;;;4.38;;
18322;SDS011;9287;49.456;11.064;2022-07-23T09:11:05;4.75;;;4.35;;
18322;SDS011;9287;49.456;11.064;2022-07-23T09:13:36;4.72;;;4.32;;
18322;SDS011;9287;49.456;11.064;2022-07-23T09:16:06;5.10;;;4.78;;
18322;SDS011;9287;49.456;11.064;2022-07-23T09:18:38;6.80;;;5.40;;
18322;SDS011;9287;49.456;11.064;2022-07-23T09:21:09;5.47;;;5.07;;
18322;SDS011;9287;49.456;11.064;2022-07-23T09:23:50;5.32;;;4.82;;
18322;SDS011;9287;49.456;11.064;2022-07-23T09:26:24;4.90;;;4.45;;
18322;SDS011;9287;49.456;11.064;2022-07-23T09:29:01;4.72;;;4.43;;
18322;SDS011;9287;49.456;11.064;2022-07-23T09:31:34;4.32;;;3.47;;
18322;SDS011;9287;49.456;11.064;2022-07-23T09:34:15;5.00;;;4.65;;
18322;SDS011;9287;49.456;11.064;2022-07-23T09:36:45;4.25;;;3.95;;
18322;SDS011;9287;49.456;11.064;2022-07-23T09:39:15;4.60;;;4.28;;
18322;SDS011;9287;49.456;11.064;2022-07-23T09:41:49;4.68;;;4.28;;
18322;SDS011;9287;49.456;11.064;2022-07-23T09:44:18;4.75;;;4.45;;
18322;SDS011;9287;49.456;11.064;2022-07-23T09:46:57;5.03;;;4.50;;
18322;SDS011;9287;49.456;11.064;2022-07-23T09:49:26;4.13;;;3.78;;
18322;SDS011;9287;49.456;11.064;2022-07-23T09:51:56;4.38;;;4.07;;
18322;SDS011;9287;49.456;11.064;2022-07-23T09:54:30;4.80;;;4.50;;
18322;SDS011;9287;49.456;11.064;2022-07-23T09:57:01;4.90;;;4.50;;
18322;SDS011;9287;49.456;11.064;2022-07-23T09:59:34;5.15;;;4.70;;
18322;SDS011;9287;49.456;11.064;2022-07-23T10:02:04;4.95;;;4.65;;
18322;SDS011;9287;49.456;11.064;2022-07-23T10:04:33;5.13;;;4.72;;
18322;SDS011;9287;49.456;11.064;2022-07-23T10:07:04;6.28;;;5.78;;
18322;SDS011;9287;49.456;11.064;2022-07-23T10:09:37;5.07;;;4.60;;
18322;SDS011;9287;49.456;11.064;2022-07-23T10:12:09;6.25;;;5.65;;
18322;SDS011;9287;49.456;11.064;2022-07-23T10:14:52;4.97;;;4.57;;
18322;SDS011;9287;49.456;11.064;2022-07-23T10:17:20;5.95;;;5.20;;
18322;SDS011;9287;49.456;11.064;2022-07-23T10:19:48;5.78;;;5.38;;
18322;SDS011;9287;49.456;11.064;2022-07-23T10:22:18;7.50;;;6.90;;
18322;SDS011;9287;49.456;11.064;2022-07-23T10:25:03;6.15;;;5.55;;
18322;SDS011;9287;49.456;11.064;2022-07-23T10:27:51;7.10;;;6.40;;
18322;SDS011;9287;49.456;11.064;2022-07-23T10:30:34;7.30;;;6.60;;
18322;SDS011;9287;49.456;11.064;2022-07-23T10:33:20;6.82;;;5.82;;
18322;SDS011;9287;49.456;11.064;2022-07-23T10:35:59;6.65;;;6.05;;
18322;SDS011;9287;49.456;11.064;2022-07-23T10:38:37;7.13;;;6.47;;
18322;SDS011;9287;49.456;11.064;2022-07-23T10:41:17;6.78;;;6.18;;
18322;SDS011;9287;49.456;11.064;2022-07-23T10:44:11;6.25;;;5.75;;
18322;SDS011;9287;49.456;11.064;2022-07-23T10:46:53;7.40;;;6.80;;
18322;SDS011;9287;49.456;11.064;2022-07-23T10:49:30;6.57;;;6.05;;
18322;SDS011;9287;49.456;11.064;2022-07-23T10:52:15;6.97;;;6.38;;
18322;SDS011;9287;49.456;11.064;2022-07-23T10:54:47;7.72;;;7.00;;
18322;SDS011;9287;49.456;11.064;2022-07-23T10:57:19;7.18;;;6.53;;
18322;SDS011;9287;49.456;11.064;2022-07-23T11:02:50;6.40;;;5.90;;
18322;SDS011;9287;49.456;11.064;2022-07-23T11:05:20;7.05;;;6.35;;
18322;SDS011;9287;49.456;11.064;2022-07-23T11:10:47;8.30;;;7.53;;
18322;SDS011;9287;49.456;11.064;2022-07-23T11:13:31;14.25;;;12.88;;
18322;SDS011;9287;49.456;11.064;2022-07-23T11:19:13;7.03;;;6.32;;
18322;SDS011;9287;49.456;11.064;2022-07-23T11:21:50;8.93;;;7.28;;
18322;SDS011;9287;49.456;11.064;2022-07-23T11:24:20;8.95;;;8.02;;
18322;SDS011;9287;49.456;11.064;2022-07-23T11:26:51;6.60;;;6.10;;
18322;SDS011;9287;49.456;11.064;2022-07-23T11:32:28;8.52;;;7.47;;
18322;SDS011;9287;49.456;11.064;2022-07-23T11:34:59;6.43;;;5.80;;
18322;SDS011;9287;49.456;11.064;2022-07-23T11:37:35;5.88;;;5.28;;
18322;SDS011;9287;49.456;11.064;2022-07-23T11:40:07;6.65;;;6.07;;
18322;SDS011;9287;49.456;11.064;2022-07-23T11:42:38;5.72;;;5.22;;
18322;SDS011;9287;49.456;11.064;2022-07-23T11:45:08;5.88;;;5.47;;
18322;SDS011;9287;49.456;11.064;2022-07-23T11:47:36;5.32;;;4.82;;
18322;SDS011;9287;49.456;11.064;2022-07-23T11:50:05;5.50;;;5.07;;
18322;SDS011;9287;49.456;11.064;2022-07-23T11:52:34;5.15;;;4.78;;
18322;SDS011;9287;49.456;11.064;2022-07-23T11:55:03;5.85;;;5.35;;
18322;SDS011;9287;49.456;11.064;2022-07-23T11:57:33;4.85;;;4.53;;
18322;SDS011;9287;49.456;11.064;2022-07-23T12:00:04;4.85;;;4.50;;
18322;SDS011;9287;49.456;11.064;2022-07-23T12:02:35;4.00;;;3.80;;
18322;SDS011;9287;49.456;11.064;2022-07-23T12:05:04;6.65;;;4.90;;
18322;SDS011;9287;49.456;11.064;2022-07-23T12:07:36;5.18;;;4.68;;
18322;SDS011;9287;49.456;11.064;2022-07-23T12:10:09;5.53;;;5.10;;
18322;SDS011;9287;49.456;11.064;2022-07-23T12:12:40;5.38;;;4.97;;
18322;SDS011;9287;49.456;11.064;2022-07-23T12:15:09;6.47;;;5.95;;
18322;SDS011;9287;49.456;11.064;2022-07-23T12:17:40;5.53;;;5.13;;
18322;SDS011;9287;49.456;11.064;2022-07-23T12:20:17;7.13;;;6.63;;
18322;SDS011;9287;49.456;11.064;2022-07-23T12:22:48;7.40;;;6.78;;
18322;SDS011;9287;49.456;11.064;2022-07-23T12:25:19;9.10;;;8.38;;
18322;SDS011;9287;49.456;11.064;2022-07-23T12:27:57;6.95;;;6.35;;
18322;SDS011;9287;49.456;11.064;2022-07-23T12:30:28;6.20;;;5.78;;
18322;SDS011;9287;49.456;11.064;2022-07-23T12:33:01;5.78;;;5.28;;
18322;SDS011;9287;49.456;11.064;2022-07-23T12:35:31;5.15;;;4.82;;
18322;SDS011;9287;49.456;11.064;2022-07-23T12:38:03;5.68;;;5.18;;
18322;SDS011;9287;49.456;11.064;2022-07-23T12:40:33;4.97;;;4.57;;
18322;SDS011;9287;49.456;11.064;2022-07-23T12:43:04;5.15;;;4.85;;
18322;SDS011;9287;49.456;11.064;2022-07-23T12:45:44;5.53;;;5.18;;
18322;SDS011;9287;49.456;11.064;2022-07-23T12:48:19;5.53;;;5.13;;
18322;SDS011;9287;49.456;11.064;2022-07-23T12:50:52;6.10;;;5.60;;
18322;SDS011;9287;49.456;11.064;2022-07-23T12:53:27;5.90;;;5.50;;
18322;SDS011;9287;49.456;11.064;2022-07-23T12:55:59;11.95;;;10.90;;
18322;SDS011;9287;49.456;11.064;2022-07-23T12:58:44;5.78;;;5.28;;
18322;SDS011;9287;49.456;11.064;2022-07-23T13:01:24;4.90;;;4.55;;
18322;SDS011;9287;49.456;11.064;2022-07-23T13:03:59;5.10;;;4.80;;
18322;SDS011;9287;49.456;11.064;2022-07-23T13:06:39;4.72;;;4.43;;
18322;SDS011;9287;49.456;11.064;2022-07-23T13:09:08;4.80;;;4.40;;
18322;SDS011;9287;49.456;11.064;2022-07-23T13:11:39;5.50;;;4.93;;
18322;SDS011;9287;49.456;11.064;2022-07-23T13:14:08;4.68;;;4.38;;
18322;SDS011;9287;49.456;11.064;2022-07-23T13:16:39;5.43;;;5.00;;
18322;SDS011;9287;49.456;11.064;2022-07-23T13:19:09;4.90;;;4.50;;
18322;SDS011;9287;49.456;11.064;2022-07-23T13:21:38;4.97;;;4.68;;
18322;SDS011;9287;49.456;11.064;2022-07-23T13:24:07;5.60;;;5.20;;
18322;SDS011;9287;49.456;11.064;2022-07-23T13:26:36;5.28;;;4.88;;
18322;SDS011;9287;49.456;11.064;2022-07-23T13:29:06;4.70;;;4.40;;
18322;SDS011;9287;49.456;11.064;2022-07-23T13:31:36;4.88;;;4.50;;
18322;SDS011;9287;49.456;11.064;2022-07-23T13:34:05;6.30;;;5.13;;
18322;SDS011;9287;49.456;11.064;2022-07-23T13:36:34;5.03;;;4.72;;
18322;SDS011;9287;49.456;11.064;2022-07-23T13:39:03;5.18;;;4.80;;
18322;SDS011;9287;49.456;11.064;2022-07-23T13:41:35;6.50;;;5.13;;
18322;SDS011;9287;49.456;11.064;2022-07-23T13:44:03;4.95;;;4.65;;
18322;SDS011;9287;49.456;11.064;2022-07-23T13:46:32;6.22;;;5.22;;
18322;SDS011;9287;49.456;11.064;2022-07-23T13:49:01;4.85;;;4.55;;
18322;SDS011;9287;49.456;11.064;2022-07-23T13:51:32;5.13;;;4.80;;
18322;SDS011;9287;49.456;11.064;2022-07-23T13:54:01;5.50;;;5.07;;
18322;SDS011;9287;49.456;11.064;2022-07-23T13:56:34;5.25;;;4.85;;
18322;SDS011;9287;49.456;11.064;2022-07-23T13:59:02;5.03;;;4.70;;
18322;SDS011;9287;49.456;11.064;2022-07-23T14:01:32;5.00;;;4.35;;
18322;SDS011;9287;49.456;11.064;2022-07-23T14:04:15;6.20;;;5.60;;
18322;SDS011;9287;49.456;11.064;2022-07-23T14:06:44;5.97;;;5.55;;
18322;SDS011;9287;49.456;11.064;2022-07-23T14:09:19;5.60;;;5.20;;
18322;SDS011;9287;49.456;11.064;2022-07-23T14:11:47;6.82;;;6.20;;
18322;SDS011;9287;49.456;11.064;2022-07-23T14:14:18;7.15;;;6.50;;
18322;SDS011;9287;49.456;11.064;2022-07-23T14:16:46;7.72;;;7.13;;
18322;SDS011;9287;49.456;11.064;2022-07-23T14:19:14;6.03;;;5.60;;
18322;SDS011;9287;49.456;11.064;2022-07-23T14:21:42;6.85;;;6.35;;
18322;SDS011;9287;49.456;11.064;2022-07-23T14:24:10;6.22;;;5.72;;
18322;SDS011;9287;49.456;11.064;2022-07-23T14:26:39;6.00;;;5.50;;
18322;SDS011;9287;49.456;11.064;2022-07-23T14:29:08;6.60;;;6.10;;
18322;SDS011;9287;49.456;11.064;2022-07-23T14:31:37;5.28;;;4.97;;
18322;SDS011;9287;49.456;11.064;2022-07-23T14:34:06;4.47;;;4.18;;
18322;SDS011;9287;49.456;11.064;2022-07-23T14:36:34;5.72;;;4.93;;
18322;SDS011;9287;49.456;11.064;2022-07-23T14:39:04;5.85;;;5.45;;
18322;SDS011;9287;49.456;11.064;2022-07-23T14:41:36;5.30;;;4.90;;
18322;SDS011;9287;49.456;11.064;2022-07-23T14:44:05;5.20;;;4.90;;
18322;SDS011;9287;49.456;11.064;2022-07-23T14:46:35;9.30;;;8.52;;
18322;SDS011;9287;49.456;11.064;2022-07-23T14:49:04;6.97;;;6.47;;
18322;SDS011;9287;49.456;11.064;2022-07-23T14:51:33;6.70;;;6.20;;
18322;SDS011;9287;49.456;11.064;2022-07-23T14:54:02;5.95;;;5.40;;
18322;SDS011;9287;49.456;11.064;2022-07-23T14:56:30;5.13;;;4.82;;
18322;SDS011;9287;49.456;11.064;2022-07-23T14:59:02;4.97;;;4.68;;
18322;SDS011;9287;49.456;11.064;2022-07-23T15:01:32;5.10;;;4.78;;
18322;SDS011;9287;49.456;11.064;2022-07-23T15:04:00;4.63;;;4.40;;
18322;SDS011;9287;49.456;11.064;2022-07-23T15:06:48;5.00;;;4.60;;
18322;SDS011;9287;49.456;11.064;2022-07-23T15:09:16;5.10;;;4.60;;
18322;SDS011;9287;49.456;11.064;2022-07-23T15:11:45;5.28;;;4.65;;